createdAt,value
2023-01-28T00:01:16.379Z,100826.81
2023-01-28T00:03:45.398Z,100822.41
2023-01-28T00:06:16.571Z,100822.62
2023-01-28T00:08:46.238Z,100820.52
2023-01-28T00:11:17.073Z,100818.11
2023-01-28T00:13:46.448Z,100821.33
2023-01-28T00:16:15.768Z,100827.94
2023-01-28T00:18:45.296Z,100819.51
2023-01-28T00:21:15.339Z,100820.09
2023-01-28T00:23:51.377Z,100817.89
2023-01-28T00:26:20.873Z,100823.27
2023-01-28T00:28:52.616Z,100819.45
2023-01-28T00:31:27.375Z,100822.14
2023-01-28T00:33:57.657Z,100824.98
2023-01-28T00:36:28.271Z,100826.59
2023-01-28T00:38:59.777Z,100822.56
2023-01-28T00:41:30.117Z,100821.60
2023-01-28T00:44:02.063Z,100812.73
2023-01-28T00:46:31.597Z,100814.27
2023-01-28T00:49:01.585Z,100808.05
2023-01-28T00:51:32.564Z,100802.19
2023-01-28T00:54:01.745Z,100810.89
2023-01-28T00:56:30.485Z,100805.25
2023-01-28T00:59:00.212Z,100801.38
2023-01-28T01:01:29.841Z,100810.78
2023-01-28T01:04:00.881Z,100809.66
2023-01-28T01:06:35.718Z,100810.44
2023-01-28T01:09:08.508Z,100815.62
2023-01-28T01:11:37.773Z,100818.20
2023-01-28T01:14:07.414Z,100822.70
2023-01-28T01:16:38.532Z,100818.68
2023-01-28T01:19:09.183Z,100811.75
2023-01-28T01:21:38.809Z,100799.94
2023-01-28T01:24:08.798Z,100797.47
2023-01-28T01:26:39.655Z,100794.03
2023-01-28T01:29:09.861Z,100797.09
2023-01-28T01:31:39.524Z,100800.63
2023-01-28T01:34:09.743Z,100805.52
2023-01-28T01:36:38.736Z,100815.56
2023-01-28T01:39:07.467Z,100802.89
2023-01-28T01:41:36.264Z,100806.87
2023-01-28T01:44:09.669Z,100805.06
2023-01-28T01:46:48.172Z,100802.00
2023-01-28T01:50:32.188Z,100806.03
2023-01-28T01:53:21.111Z,100802.97
2023-01-28T01:55:51.712Z,100795.97
2023-01-28T01:58:23.306Z,100794.62
2023-01-28T02:00:51.825Z,100802.94
2023-01-28T02:03:26.019Z,100800.90
2023-01-28T02:05:55.451Z,100796.77
2023-01-28T02:08:28.123Z,100800.31
2023-01-28T02:11:03.252Z,100794.08
2023-01-28T02:13:40.198Z,100789.03
2023-01-28T02:16:08.976Z,100787.23
2023-01-28T02:18:37.598Z,100781.11
2023-01-28T02:21:30.916Z,100782.45
2023-01-28T02:24:23.524Z,100789.55
2023-01-28T02:27:03.873Z,100790.14
2023-01-28T02:29:56.941Z,100787.08
2023-01-28T02:32:48.129Z,100788.31
2023-01-28T02:35:37.569Z,100781.22
2023-01-28T02:38:12.020Z,100777.09
2023-01-28T02:41:02.631Z,100776.60
2023-01-28T02:43:35.833Z,100774.77
2023-01-28T02:46:50.591Z,100779.92
2023-01-28T02:49:26.415Z,100780.13
2023-01-28T02:52:15.784Z,100780.13
2023-01-28T02:55:05.949Z,100774.16
2023-01-28T02:58:06.499Z,100776.95
2023-01-28T03:00:46.453Z,100779.37
2023-01-28T03:03:28.751Z,100778.78
2023-01-28T03:06:06.867Z,100770.53
2023-01-28T03:09:11.991Z,100770.75
2023-01-28T03:12:03.066Z,100773.44
2023-01-28T03:14:53.314Z,100775.52
2023-01-28T03:18:10.189Z,100773.33
2023-01-28T03:21:12.307Z,100774.08
2023-01-28T03:24:05.545Z,100766.98
2023-01-28T03:26:58.281Z,100771.88
2023-01-28T03:29:46.052Z,100765.94
2023-01-28T03:32:35.934Z,100769.78
2023-01-28T03:35:25.198Z,100766.13
2023-01-28T03:37:54.116Z,100762.18
2023-01-28T03:40:24.783Z,100763.41
2023-01-28T03:42:56.913Z,100764.98
2023-01-28T03:45:30.308Z,100767.84
2023-01-28T03:47:59.599Z,100755.77
2023-01-28T03:50:30.455Z,100762.48
2023-01-28T03:53:03.221Z,100771.69
2023-01-28T03:55:33.838Z,100769.00
2023-01-28T03:58:04.183Z,100774.53
2023-01-28T04:00:36.281Z,100769.31
2023-01-28T04:03:07.605Z,100763.46
2023-01-28T04:05:36.733Z,100773.34
2023-01-28T04:08:06.195Z,100771.41
2023-01-28T04:10:53.498Z,100775.81
2023-01-28T04:13:27.717Z,100776.41
2023-01-28T04:15:58.825Z,100782.86
2023-01-28T04:18:30.451Z,100782.00
2023-01-28T04:21:00.996Z,100784.30
2023-01-28T04:23:31.397Z,100786.40
2023-01-28T04:26:01.115Z,100792.89
2023-01-28T04:28:31.025Z,100791.92
2023-01-28T04:31:02.224Z,100792.52
2023-01-28T04:33:45.759Z,100791.39
2023-01-28T04:36:29.954Z,100801.87
2023-01-28T04:39:18.333Z,100795.75
2023-01-28T04:42:05.951Z,100791.45
2023-01-28T04:44:39.127Z,100793.17
2023-01-28T04:47:22.868Z,100797.14
2023-01-28T04:50:02.250Z,100799.45
2023-01-28T04:52:40.620Z,100801.38
2023-01-28T04:55:21.895Z,100806.76
2023-01-28T04:57:52.581Z,100800.52
2023-01-28T05:00:22.122Z,100805.68
2023-01-28T05:02:54.077Z,100801.66
2023-01-28T05:05:23.398Z,100804.34
2023-01-28T05:07:58.048Z,100811.64
2023-01-28T05:10:27.198Z,100818.47
2023-01-28T05:12:57.027Z,100820.18
2023-01-28T05:15:26.183Z,100818.36
2023-01-28T05:18:00.301Z,100820.72
2023-01-28T05:20:31.021Z,100817.55
2023-01-28T05:23:00.314Z,100807.40
2023-01-28T05:25:31.245Z,100812.28
2023-01-28T05:28:00.344Z,100800.58
2023-01-28T05:30:29.346Z,100801.92
2023-01-28T05:32:58.865Z,100805.25
2023-01-28T05:35:28.499Z,100801.59
2023-01-28T05:37:57.449Z,100797.30
2023-01-28T05:40:28.843Z,100804.13
2023-01-28T05:42:58.757Z,100802.14
2023-01-28T05:45:32.690Z,100803.27
2023-01-28T05:48:04.617Z,100795.69
2023-01-28T05:50:50.991Z,100793.97
2023-01-28T05:53:25.118Z,100791.98
2023-01-28T05:55:54.131Z,100789.08
2023-01-28T05:58:23.831Z,100796.77
2023-01-28T06:00:56.463Z,100789.78
2023-01-28T06:03:29.176Z,100793.92
2023-01-28T06:05:59.326Z,100801.01
2023-01-28T06:08:29.753Z,100796.13
2023-01-28T06:10:58.880Z,100801.87
2023-01-28T06:13:28.028Z,100797.84
2023-01-28T06:16:10.561Z,100798.33
2023-01-28T06:18:48.011Z,100794.30
2023-01-28T06:21:16.829Z,100789.89
2023-01-28T06:23:46.738Z,100795.27
2023-01-28T06:26:15.915Z,100793.06
2023-01-28T06:28:47.392Z,100803.11
2023-01-28T06:31:17.389Z,100799.72
2023-01-28T06:33:47.423Z,100795.09
2023-01-28T06:36:17.963Z,100801.33
2023-01-28T06:38:47.060Z,100799.02
2023-01-28T06:41:16.171Z,100806.96
2023-01-28T06:43:46.279Z,100811.36
2023-01-28T06:46:15.261Z,100821.03
2023-01-28T06:48:46.241Z,100817.38
2023-01-28T06:51:16.651Z,100817.00
2023-01-28T06:53:46.228Z,100814.32
2023-01-28T06:56:15.692Z,100808.09
2023-01-28T06:58:45.467Z,100808.30
2023-01-28T07:01:14.536Z,100813.57
2023-01-28T07:03:44.976Z,100819.16
2023-01-28T07:06:14.381Z,100815.83
2023-01-28T07:08:43.178Z,100823.89
2023-01-28T07:11:12.699Z,100825.93
2023-01-28T07:13:43.275Z,100830.77
2023-01-28T07:16:11.886Z,100832.98
2023-01-28T07:18:42.470Z,100828.31
2023-01-28T07:21:13.124Z,100824.61
2023-01-28T07:23:42.243Z,100823.20
2023-01-28T07:26:11.347Z,100809.78
2023-01-28T07:28:41.989Z,100812.41
2023-01-28T07:31:11.636Z,100823.15
2023-01-28T07:33:40.460Z,100822.08
2023-01-28T07:36:09.708Z,100814.51
2023-01-28T07:38:38.665Z,100812.04
2023-01-28T07:41:09.629Z,100806.13
2023-01-28T07:43:38.509Z,100806.07
2023-01-28T07:46:09.043Z,100811.48
2023-01-28T07:48:38.990Z,100817.81
2023-01-28T07:51:08.035Z,100818.02
2023-01-28T07:53:37.284Z,100815.45
2023-01-28T07:56:07.549Z,100821.98
2023-01-28T07:58:36.262Z,100832.44
2023-01-28T08:01:07.283Z,100836.02
2023-01-28T08:03:36.427Z,100836.87
2023-01-28T08:06:06.601Z,100845.52
2023-01-28T08:08:36.099Z,100845.30
2023-01-28T08:11:10.801Z,100842.62
2023-01-28T08:13:40.475Z,100844.06
2023-01-28T08:16:10.790Z,100843.00
2023-01-28T08:18:40.111Z,100845.30
2023-01-28T08:21:09.868Z,100838.22
2023-01-28T08:23:39.595Z,100846.65
2023-01-28T08:26:10.523Z,100839.66
2023-01-28T08:28:40.201Z,100843.00
2023-01-28T08:31:10.632Z,100846.85
2023-01-28T08:33:40.010Z,100840.70
2023-01-28T08:36:11.371Z,100842.03
2023-01-28T08:38:43.414Z,100846.65
2023-01-28T08:41:12.975Z,100841.48
2023-01-28T08:43:42.794Z,100837.74
2023-01-28T08:46:12.757Z,100836.98
2023-01-28T08:48:42.791Z,100840.70
2023-01-28T08:51:15.351Z,100839.84
2023-01-28T08:53:55.090Z,100835.44
2023-01-28T08:56:27.370Z,100836.98
2023-01-28T08:58:58.344Z,100831.23
2023-01-28T09:01:41.622Z,100827.32
2023-01-28T09:04:19.461Z,100819.00
2023-01-28T09:06:51.285Z,100807.00
2023-01-28T09:09:21.523Z,100808.23
2023-01-28T09:11:52.419Z,100799.53
2023-01-28T09:14:24.064Z,100805.72
2023-01-28T09:16:54.380Z,100800.14
2023-01-28T09:19:24.944Z,100799.17
2023-01-28T09:21:54.969Z,100804.58
2023-01-28T09:24:44.449Z,100804.59
2023-01-28T09:27:18.748Z,100799.91
2023-01-28T09:29:48.705Z,100804.52
2023-01-28T09:32:18.589Z,100801.84
2023-01-28T09:34:51.155Z,100795.31
2023-01-28T09:37:25.144Z,100793.00
2023-01-28T09:39:55.886Z,100793.31
2023-01-28T09:42:49.319Z,100795.78
2023-01-28T09:45:28.677Z,100786.88
2023-01-28T09:48:02.910Z,100784.20
2023-01-28T09:50:41.820Z,100773.47
2023-01-28T09:53:34.035Z,100769.92
2023-01-28T09:56:12.267Z,100765.96
2023-01-28T09:58:43.661Z,100763.50
2023-01-28T10:01:38.900Z,100760.44
2023-01-28T10:04:17.776Z,100758.52
2023-01-28T10:07:00.085Z,100750.45
2023-01-28T10:09:59.528Z,100747.14
2023-01-28T10:13:01.016Z,100752.83
2023-01-28T10:15:53.567Z,100749.61
2023-01-28T10:18:55.211Z,100746.06
2023-01-28T10:21:44.272Z,100752.88
2023-01-28T10:24:26.332Z,100747.30
2023-01-28T10:26:55.992Z,100749.72
2023-01-28T10:29:32.490Z,100740.59
2023-01-28T10:32:21.087Z,100741.55
2023-01-28T10:34:52.701Z,100740.11
2023-01-28T10:37:22.686Z,100742.41
2023-01-28T10:39:59.894Z,100736.24
2023-01-28T10:42:36.767Z,100731.03
2023-01-28T10:45:24.895Z,100732.05
2023-01-28T10:48:04.399Z,100728.66
2023-01-28T10:50:35.208Z,100718.68
2023-01-28T10:53:05.454Z,100719.69
2023-01-28T10:55:48.554Z,100717.48
2023-01-28T10:58:25.415Z,100718.98
2023-01-28T11:01:01.985Z,100708.70
2023-01-28T11:03:31.948Z,100709.93
2023-01-28T11:06:01.769Z,100705.45
2023-01-28T11:08:31.856Z,100695.20
2023-01-28T11:11:26.989Z,100685.31
2023-01-28T11:13:58.839Z,100680.92
2023-01-28T11:16:29.040Z,100684.61
2023-01-28T11:19:06.126Z,100685.84
2023-01-28T11:21:36.860Z,100679.19
2023-01-28T11:24:14.837Z,100678.41
2023-01-28T11:26:50.166Z,100678.44
2023-01-28T11:29:34.643Z,100677.27
2023-01-28T11:32:03.552Z,100674.33
2023-01-28T11:34:35.236Z,100672.55
2023-01-28T11:37:15.917Z,100673.89
2023-01-28T11:39:44.952Z,100672.06
2023-01-28T11:42:22.597Z,100668.58
2023-01-28T11:44:53.718Z,100671.41
2023-01-28T11:47:50.571Z,100667.63
2023-01-28T11:50:44.011Z,100667.52
2023-01-28T11:53:35.715Z,100659.82
2023-01-28T11:56:35.067Z,100663.25
2023-01-28T11:59:46.166Z,100659.22
2023-01-28T12:02:36.855Z,100660.33
2023-01-28T12:05:45.366Z,100657.55
2023-01-28T12:08:27.397Z,100650.95
2023-01-28T12:11:10.686Z,100648.64
2023-01-28T12:14:01.157Z,100647.42
2023-01-28T12:16:35.180Z,100651.36
2023-01-28T12:19:32.411Z,100651.86
2023-01-28T12:22:18.882Z,100641.84
2023-01-28T12:25:25.991Z,100627.17
2023-01-28T12:28:33.668Z,100635.98
2023-01-28T12:31:31.213Z,100627.66
2023-01-28T12:34:25.205Z,100631.83
2023-01-28T12:37:12.511Z,100631.22
2023-01-28T12:40:00.200Z,100628.28
2023-01-28T12:42:49.747Z,100632.08
2023-01-28T12:45:27.076Z,100632.48
2023-01-28T12:48:40.320Z,100625.89
2023-01-28T12:51:21.741Z,100621.61
2023-01-28T12:54:23.700Z,100618.92
2023-01-28T12:56:55.452Z,100613.05
2023-01-28T12:59:41.782Z,100623.94
2023-01-28T13:02:18.641Z,100615.63
2023-01-28T13:05:15.325Z,100621.13
2023-01-28T13:08:06.257Z,100612.80
2023-01-28T13:10:45.287Z,100612.43
2023-01-28T13:13:36.938Z,100613.89
2023-01-28T13:16:08.538Z,100614.14
2023-01-28T13:18:47.891Z,100612.66
2023-01-28T13:21:32.448Z,100608.52
2023-01-28T13:24:15.183Z,100610.32
2023-01-28T13:26:53.347Z,100608.21
2023-01-28T13:29:33.647Z,100607.72
2023-01-28T13:32:03.837Z,100614.95
2023-01-28T13:34:37.730Z,100620.58
2023-01-28T13:37:35.252Z,100615.31
2023-01-28T13:40:18.303Z,100609.80
2023-01-28T13:42:47.122Z,100616.66
2023-01-28T13:45:20.928Z,100619.48
2023-01-28T13:48:04.226Z,100619.24
2023-01-28T13:50:43.192Z,100618.39
2023-01-28T13:53:40.754Z,100616.92
2023-01-28T13:56:21.034Z,100619.86
2023-01-28T13:59:21.035Z,100611.67
2023-01-28T14:02:26.796Z,100610.81
2023-01-28T14:05:28.863Z,100616.20
2023-01-28T14:08:50.491Z,100620.98
2023-01-28T14:11:40.573Z,100617.92
2023-01-28T14:14:29.457Z,100615.48
2023-01-28T14:17:32.906Z,100614.27
2023-01-28T14:20:01.622Z,100622.47
2023-01-28T14:22:30.306Z,100617.33
2023-01-28T14:25:00.960Z,100617.95
2023-01-28T14:27:37.415Z,100617.18
2023-01-28T14:30:17.840Z,100617.18
2023-01-28T14:32:47.921Z,100616.69
2023-01-28T14:35:33.900Z,100614.13
2023-01-28T14:38:09.796Z,100605.55
2023-01-28T14:40:39.401Z,100617.67
2023-01-28T14:43:10.913Z,100612.78
2023-01-28T14:45:50.884Z,100619.51
2023-01-28T14:49:01.207Z,100612.90
2023-01-28T14:51:58.109Z,100619.14
2023-01-28T14:54:32.755Z,100624.53
2023-01-28T14:57:31.352Z,100630.78
2023-01-28T15:00:02.579Z,100635.19
2023-01-28T15:02:32.019Z,100634.34
2023-01-28T15:05:11.203Z,100635.08
2023-01-28T15:07:47.105Z,100638.02
2023-01-28T15:10:21.708Z,100637.77
2023-01-28T15:12:58.017Z,100638.13
2023-01-28T15:15:41.409Z,100641.92
2023-01-28T15:18:27.646Z,100643.03
2023-01-28T15:20:56.288Z,100639.48
2023-01-28T15:23:34.469Z,100643.77
2023-01-28T15:26:12.837Z,100645.36
2023-01-28T15:28:43.414Z,100641.92
2023-01-28T15:31:34.034Z,100642.53
2023-01-28T15:34:12.758Z,100641.07
2023-01-28T15:36:41.727Z,100649.64
2023-01-28T15:39:20.641Z,100648.41
2023-01-28T15:41:53.576Z,100646.08
2023-01-28T15:44:44.151Z,100646.33
2023-01-28T15:47:23.848Z,100646.33
2023-01-28T15:49:54.762Z,100653.30
2023-01-28T15:52:34.158Z,100647.66
2023-01-28T15:55:04.120Z,100654.52
2023-01-28T15:57:34.509Z,100651.94
2023-01-28T16:00:14.892Z,100654.38
2023-01-28T16:02:52.030Z,100650.95
2023-01-28T16:05:40.283Z,100650.06
2023-01-28T20:19:40.780Z,100712.05
2023-01-28T20:22:10.143Z,100714.11
2023-01-28T20:24:39.772Z,100714.97
2023-01-28T20:27:11.099Z,100710.94
2023-01-28T20:29:40.356Z,100713.14
2023-01-28T20:32:17.790Z,100710.81
2023-01-28T20:34:40.967Z,100709.33
2023-01-28T20:37:10.026Z,100705.78
2023-01-28T20:39:39.240Z,100711.28
2023-01-28T20:42:10.207Z,100706.62
2023-01-28T20:44:40.828Z,100712.02
2023-01-28T20:47:09.517Z,100709.31
2023-01-28T20:49:38.511Z,100712.61
2023-01-28T20:52:06.952Z,100712.23
2023-01-28T20:54:35.676Z,100712.56
2023-01-28T20:57:04.435Z,100708.63
2023-01-28T20:59:33.610Z,100710.20
2023-01-28T21:02:06.398Z,100704.58
2023-01-28T21:04:35.681Z,100701.52
2023-01-28T21:07:05.396Z,100700.78
2023-01-28T21:09:34.424Z,100705.67
2023-01-28T21:12:05.774Z,100707.37
2023-01-28T21:14:34.526Z,100710.66
2023-01-28T21:17:03.300Z,100704.66
2023-01-28T21:19:33.019Z,100707.21
2023-01-28T21:22:01.606Z,100709.05
2023-01-28T21:24:36.483Z,100697.66
2023-01-28T21:27:05.353Z,100708.16
2023-01-28T21:29:34.042Z,100705.70
2023-01-28T21:32:04.083Z,100709.12
2023-01-28T21:34:32.960Z,100708.00
2023-01-28T21:37:01.801Z,100711.30
2023-01-28T21:39:30.545Z,100704.80
2023-01-28T21:41:59.211Z,100707.00
2023-01-28T21:44:28.142Z,100716.41
2023-01-28T21:46:58.113Z,100719.22
2023-01-28T21:49:28.471Z,100715.16
2023-01-28T21:51:57.609Z,100720.16
2023-01-28T21:54:26.355Z,100715.39
2023-01-28T21:56:54.883Z,100713.19
2023-01-28T21:59:30.222Z,100714.84
2023-01-28T22:02:10.092Z,100715.81
2023-01-28T22:04:42.902Z,100716.30
2023-01-28T22:07:15.979Z,100713.72
2023-01-28T22:09:45.131Z,100709.92
2023-01-28T22:12:15.305Z,100708.20
2023-01-28T22:14:45.520Z,100714.33
2023-01-28T22:17:17.193Z,100716.27
2023-01-28T22:19:47.861Z,100705.75
2023-01-28T22:22:16.638Z,100706.94
2023-01-28T22:24:45.600Z,100709.75
2023-01-28T22:27:14.878Z,100696.20
2023-01-28T22:29:43.905Z,100700.23
2023-01-28T22:32:12.829Z,100697.54
2023-01-28T22:34:42.038Z,100693.99
2023-01-28T22:37:11.056Z,100689.70
2023-01-28T22:39:41.031Z,100693.10
2023-01-28T22:42:09.674Z,100705.20
2023-01-28T22:44:38.724Z,100696.12
2023-01-28T22:47:09.353Z,100697.47
2023-01-28T22:49:38.338Z,100691.61
2023-01-28T22:52:07.493Z,100687.33
2023-01-28T22:54:37.049Z,100689.64
2023-01-28T22:57:05.642Z,100690.23
2023-01-28T22:59:35.234Z,100688.04
2023-01-28T23:02:03.871Z,100692.44
2023-01-28T23:04:32.741Z,100684.13
2023-01-28T23:07:01.795Z,100680.44
2023-01-28T23:09:32.834Z,100679.91
2023-01-28T23:12:04.347Z,100689.31
2023-01-28T23:14:52.655Z,100684.31
2023-01-28T23:17:40.974Z,100676.37
2023-01-28T23:20:30.170Z,100676.37
2023-01-28T23:23:19.476Z,100668.05
2023-01-28T23:25:54.908Z,100658.91
2023-01-28T23:28:25.000Z,100663.39
2023-01-28T23:30:54.958Z,100665.78
2023-01-28T23:33:24.250Z,100674.80
2023-01-28T23:35:54.399Z,100671.74
2023-01-28T23:38:23.075Z,100663.69
2023-01-28T23:40:51.682Z,100666.97
2023-01-28T23:43:21.131Z,100662.45
2023-01-28T23:45:50.082Z,100656.23
2023-01-28T23:48:18.912Z,100657.95
2023-01-28T23:50:48.219Z,100657.95
2023-01-28T23:53:16.912Z,100662.45
2023-01-28T23:55:46.274Z,100659.11
2023-01-28T23:58:15.117Z,100658.73
